createdAt,value
2023-03-21T00:02:01.520Z,38.47
2023-03-21T00:04:44.501Z,33.97
2023-03-21T00:09:52.425Z,37.13
2023-03-21T00:12:21.893Z,37.13
2023-03-21T00:14:54.225Z,34.15
2023-03-21T00:17:25.517Z,35.42
2023-03-21T00:19:55.328Z,37.40
2023-03-21T00:22:26.465Z,37.10
2023-03-21T00:24:55.908Z,33.17
2023-03-21T00:27:50.106Z,37.05
2023-03-21T00:30:16.792Z,33.95
2023-03-21T00:32:55.382Z,35.38
2023-03-21T00:35:57.539Z,35.20
2023-03-21T00:38:16.649Z,28.05
2023-03-21T00:40:49.209Z,33.78
2023-03-21T00:43:23.555Z,32.22
2023-03-21T00:45:51.881Z,30.35
2023-03-21T00:48:19.795Z,35.83
2023-03-21T00:50:48.290Z,32.05
2023-03-21T00:53:16.648Z,33.70
2023-03-21T00:55:45.360Z,30.40
2023-03-21T00:58:13.146Z,30.15
2023-03-21T01:00:41.620Z,36.00
2023-03-21T01:03:24.545Z,35.92
2023-03-21T01:06:05.766Z,33.65
2023-03-21T01:08:52.224Z,34.28
2023-03-21T01:11:28.827Z,39.70
2023-03-21T01:14:14.819Z,29.95
2023-03-21T01:16:49.759Z,38.67
2023-03-21T01:19:29.178Z,29.20
2023-03-21T01:22:03.369Z,35.80
2023-03-21T01:24:35.573Z,34.22
2023-03-21T01:27:05.053Z,38.50
2023-03-21T01:29:33.313Z,34.40
2023-03-21T01:32:01.828Z,40.13
2023-03-21T01:34:30.302Z,37.80
2023-03-21T01:36:58.750Z,38.13
2023-03-21T01:39:27.955Z,39.75
2023-03-21T01:41:55.205Z,41.65
2023-03-21T01:44:23.661Z,44.47
2023-03-21T01:47:09.847Z,45.75
2023-03-21T01:49:49.834Z,41.78
2023-03-21T01:52:39.699Z,42.33
2023-03-21T01:55:16.236Z,51.67
2023-03-21T01:58:05.248Z,50.67
2023-03-21T02:00:38.452Z,48.58
2023-03-21T02:03:26.324Z,51.08
2023-03-21T02:06:19.237Z,48.28
2023-03-21T02:08:48.823Z,52.08
2023-03-21T02:11:19.300Z,51.70
2023-03-21T02:13:50.201Z,51.05
2023-03-21T02:17:12.745Z,51.20
2023-03-21T02:20:22.106Z,48.30
2023-03-21T02:23:43.347Z,49.42
2023-03-21T02:27:06.701Z,50.43
2023-03-21T02:30:42.644Z,48.78
2023-03-21T02:33:39.940Z,56.42
2023-03-21T02:36:52.157Z,50.95
2023-03-21T02:39:38.734Z,52.97
2023-03-21T02:43:01.008Z,47.45
2023-03-21T02:46:03.912Z,49.53
2023-03-21T02:48:52.363Z,50.03
2023-03-21T02:51:30.401Z,48.23
2023-03-21T02:54:32.337Z,52.95
2023-03-21T02:57:09.702Z,52.97
2023-03-21T02:59:53.271Z,50.08
2023-03-21T03:02:30.948Z,57.28
2023-03-21T03:05:02.874Z,52.15
2023-03-21T03:08:11.740Z,47.28
2023-03-21T03:11:07.743Z,48.00
2023-03-21T03:13:58.160Z,50.88
2023-03-21T03:16:37.032Z,49.95
2023-03-21T03:19:36.659Z,50.75
2023-03-21T03:23:07.071Z,48.35
2023-03-21T03:26:12.937Z,50.03
2023-03-21T03:28:53.729Z,45.88
2023-03-21T03:31:47.501Z,47.47
2023-03-21T03:34:26.792Z,46.88
2023-03-21T03:39:51.467Z,55.50
2023-03-21T03:42:58.886Z,45.80
2023-03-21T03:45:50.069Z,51.08
2023-03-21T03:48:35.195Z,46.67
2023-03-21T03:51:23.994Z,48.35
2023-03-21T03:54:08.989Z,48.88
2023-03-21T03:56:40.772Z,52.25
2023-03-21T03:59:11.329Z,50.55
2023-03-21T04:01:41.617Z,45.13
2023-03-21T04:04:13.867Z,52.88
2023-03-21T04:06:51.716Z,50.72
2023-03-21T04:09:34.066Z,50.55
2023-03-21T04:12:17.280Z,50.05
2023-03-21T04:14:47.613Z,41.33
2023-03-21T04:17:19.380Z,47.00
2023-03-21T04:19:53.802Z,47.40
2023-03-21T04:22:28.238Z,48.40
2023-03-21T04:25:00.505Z,49.20
2023-03-21T04:27:30.486Z,48.65
2023-03-21T04:29:58.366Z,41.50
2023-03-21T04:32:28.186Z,48.97
2023-03-21T04:34:58.352Z,44.53
2023-03-21T04:37:28.406Z,46.38
2023-03-21T04:39:58.441Z,42.15
2023-03-21T04:42:28.569Z,46.83
2023-03-21T04:44:58.681Z,46.53
2023-03-21T04:47:29.287Z,48.00
2023-03-21T04:49:59.516Z,46.80
2023-03-21T04:52:29.625Z,49.15
2023-03-21T04:54:59.804Z,51.65
2023-03-21T04:57:29.953Z,49.72
2023-03-21T05:00:00.017Z,54.67
2023-03-21T05:02:30.094Z,43.05
2023-03-21T05:05:00.180Z,49.13
2023-03-21T05:07:31.392Z,52.92
2023-03-21T05:10:02.692Z,46.20
2023-03-21T05:12:33.173Z,43.80
2023-03-21T05:15:05.592Z,51.70
2023-03-21T05:17:35.697Z,47.80
2023-03-21T05:20:09.380Z,48.70
2023-03-21T05:22:40.993Z,50.75
2023-03-21T05:25:12.447Z,45.63
2023-03-21T05:27:45.401Z,49.55
2023-03-21T05:30:18.578Z,48.20
2023-03-21T05:32:48.641Z,46.05
2023-03-21T05:35:18.803Z,48.28
2023-03-21T05:37:48.882Z,54.80
2023-03-21T05:40:19.833Z,52.55
2023-03-21T05:42:50.001Z,52.95
2023-03-21T05:45:20.668Z,49.15
2023-03-21T05:47:50.804Z,51.78
2023-03-21T05:50:21.030Z,53.22
2023-03-21T05:52:51.224Z,51.45
2023-03-21T05:55:21.288Z,53.80
2023-03-21T05:57:51.354Z,54.80
2023-03-21T06:00:24.363Z,52.47
2023-03-21T06:02:54.965Z,51.13
2023-03-21T06:05:25.495Z,53.08
2023-03-21T06:07:55.631Z,49.33
2023-03-21T06:10:25.706Z,60.83
2023-03-21T06:12:55.898Z,61.25
2023-03-21T06:15:26.858Z,57.55
2023-03-21T06:17:56.966Z,54.45
2023-03-21T06:20:27.082Z,56.88
2023-03-21T06:22:57.224Z,47.97
2023-03-21T06:25:27.807Z,59.15
2023-03-21T06:27:57.917Z,57.95
2023-03-21T06:30:27.965Z,58.78
2023-03-21T06:32:58.009Z,57.83
2023-03-21T06:35:28.086Z,53.70
2023-03-21T06:37:59.125Z,54.28
2023-03-21T06:40:29.160Z,63.28
2023-03-21T06:42:59.225Z,59.55
2023-03-21T06:45:29.296Z,58.47
2023-03-21T06:47:59.380Z,55.10
2023-03-21T06:50:29.579Z,61.03
2023-03-21T06:52:59.931Z,57.15
2023-03-21T06:55:30.305Z,56.88
2023-03-21T06:58:00.390Z,57.70
2023-03-21T07:00:30.819Z,66.47
2023-03-21T07:03:01.896Z,58.00
2023-03-21T07:05:32.063Z,57.92
2023-03-21T07:08:02.825Z,59.00
2023-03-21T07:10:33.138Z,57.50
2023-03-21T07:13:03.277Z,62.63
2023-03-21T07:15:33.370Z,62.30
2023-03-21T07:18:03.069Z,60.13
2023-03-21T07:20:31.674Z,58.38
2023-03-21T07:23:00.969Z,65.57
2023-03-21T07:25:30.941Z,63.78
2023-03-21T07:27:59.227Z,65.18
2023-03-21T07:30:28.118Z,63.42
2023-03-21T07:32:55.999Z,63.90
2023-03-21T07:35:24.494Z,67.80
2023-03-21T07:37:52.927Z,65.43
2023-03-21T07:40:21.510Z,65.70
2023-03-21T07:42:53.320Z,61.63
2023-03-21T07:45:25.502Z,62.83
2023-03-21T07:47:55.650Z,56.92
2023-03-21T07:50:25.822Z,64.63
2023-03-21T07:52:56.220Z,66.13
2023-03-21T07:55:26.360Z,58.88
2023-03-21T07:57:56.524Z,60.35
2023-03-21T08:00:27.089Z,64.18
2023-03-21T08:02:59.721Z,61.67
2023-03-21T08:05:40.844Z,64.85
2023-03-21T08:08:11.332Z,67.07
2023-03-21T08:10:39.896Z,61.65
2023-03-21T08:13:08.062Z,61.58
2023-03-21T08:15:37.698Z,60.17
2023-03-21T08:18:08.942Z,56.85
2023-03-21T08:20:36.627Z,59.65
2023-03-21T08:23:05.173Z,60.58
2023-03-21T08:25:33.351Z,56.80
2023-03-21T08:28:01.613Z,60.78
2023-03-21T08:30:30.218Z,57.13
2023-03-21T08:33:01.552Z,52.70
2023-03-21T08:35:32.213Z,56.33
2023-03-21T08:38:07.366Z,56.25
2023-03-21T08:40:37.574Z,55.20
2023-03-21T08:43:07.852Z,52.92
2023-03-21T08:45:38.249Z,53.28
2023-03-21T08:48:08.533Z,51.78
2023-03-21T08:50:38.747Z,65.20
2023-03-21T08:53:08.830Z,51.97
2023-03-21T08:55:39.775Z,51.25
2023-03-21T08:58:09.963Z,52.83
2023-03-21T09:00:40.019Z,52.70
2023-03-21T09:03:11.731Z,55.60
2023-03-21T09:05:41.921Z,56.83
2023-03-21T09:08:13.262Z,54.63
2023-03-21T09:10:43.391Z,49.85
2023-03-21T09:13:13.424Z,52.40
2023-03-21T09:15:43.508Z,50.72
2023-03-21T09:18:15.142Z,55.67
2023-03-21T09:20:47.433Z,50.33
2023-03-21T09:23:18.353Z,51.88
2023-03-21T09:25:48.559Z,50.78
2023-03-21T09:28:18.712Z,52.30
2023-03-21T09:30:48.907Z,53.35
2023-03-21T09:33:25.778Z,50.67
2023-03-21T09:35:58.551Z,45.85
2023-03-21T09:38:30.670Z,51.08
2023-03-21T09:41:32.700Z,52.03
2023-03-21T09:44:39.582Z,51.47
2023-03-21T09:47:37.787Z,49.95
2023-03-21T09:50:31.717Z,50.58
2023-03-21T09:53:23.844Z,44.13
2023-03-21T09:55:56.478Z,45.08
2023-03-21T09:58:53.255Z,46.25
2023-03-21T10:01:41.828Z,43.80
2023-03-21T10:04:19.031Z,43.88
2023-03-21T10:07:02.248Z,45.60
2023-03-21T10:09:34.843Z,43.03
2023-03-21T10:12:22.034Z,40.70
2023-03-21T10:15:00.919Z,44.70
2023-03-21T10:17:46.580Z,40.90
2023-03-21T10:20:32.153Z,41.58
2023-03-21T10:23:12.856Z,43.53
2023-03-21T10:26:02.212Z,41.70
2023-03-21T10:28:52.481Z,44.53
2023-03-21T10:31:29.992Z,42.35
2023-03-21T10:34:31.276Z,45.47
2023-03-21T10:37:05.529Z,43.33
2023-03-21T10:39:50.364Z,41.55
2023-03-21T10:42:35.634Z,35.65
2023-03-21T10:45:20.182Z,35.50
2023-03-21T10:47:52.634Z,38.25
2023-03-21T10:50:25.709Z,38.97
2023-03-21T10:53:00.923Z,37.83
2023-03-21T10:55:42.418Z,38.60
2023-03-21T10:58:27.439Z,41.72
2023-03-21T11:01:07.645Z,36.50
2023-03-21T11:03:43.780Z,36.90
2023-03-21T11:06:22.380Z,36.35
2023-03-21T11:09:23.236Z,33.90
2023-03-21T11:12:17.810Z,32.72
2023-03-21T11:14:51.247Z,30.30
2023-03-21T11:17:28.419Z,33.42
2023-03-21T11:20:09.095Z,28.00
2023-03-21T11:22:46.491Z,32.60
2023-03-21T11:25:39.201Z,32.13
2023-03-21T11:28:21.180Z,31.83
2023-03-21T11:30:59.708Z,28.48
2023-03-21T11:36:20.923Z,26.92
2023-03-21T11:39:28.467Z,31.13
2023-03-21T11:41:58.736Z,26.48
2023-03-21T11:44:44.584Z,29.35
2023-03-21T11:47:14.728Z,25.83
2023-03-21T11:49:44.838Z,24.88
2023-03-21T11:52:43.740Z,26.40
2023-03-21T11:55:57.875Z,27.52
2023-03-21T11:59:18.318Z,26.70
2023-03-21T12:02:12.492Z,25.87
2023-03-21T12:05:21.736Z,27.25
2023-03-21T12:08:21.481Z,28.05
2023-03-21T12:11:01.426Z,25.05
2023-03-21T12:14:09.996Z,25.85
2023-03-21T12:17:25.099Z,26.30
2023-03-21T12:21:07.448Z,24.73
2023-03-21T12:24:38.497Z,22.90
2023-03-21T12:28:16.919Z,25.43
2023-03-21T12:31:32.169Z,22.95
2023-03-21T12:34:50.685Z,23.60
2023-03-21T12:37:58.027Z,23.08
2023-03-21T12:40:40.955Z,21.08
2023-03-21T12:43:33.757Z,21.77
2023-03-21T12:46:20.820Z,21.58
2023-03-21T12:49:09.982Z,20.85
2023-03-21T12:51:51.215Z,22.48
2023-03-21T12:54:41.840Z,20.52
2023-03-21T12:57:40.137Z,20.75
2023-03-21T13:00:41.287Z,17.27
2023-03-21T13:03:51.594Z,18.70
2023-03-21T13:06:27.937Z,17.55
2023-03-21T13:09:10.542Z,20.15
2023-03-21T13:11:41.217Z,15.93
2023-03-21T13:15:25.799Z,19.42
2023-03-21T13:18:23.134Z,18.23
2023-03-21T13:21:15.060Z,17.77
2023-03-21T13:24:18.273Z,18.05
2023-03-21T13:27:30.376Z,16.40
2023-03-21T13:30:26.421Z,16.85
2023-03-21T13:33:34.708Z,16.83
2023-03-21T13:41:08.451Z,14.93
2023-03-21T13:46:40.601Z,17.40
2023-03-21T13:49:38.064Z,14.35
2023-03-21T13:52:11.132Z,17.90
2023-03-21T13:54:51.877Z,15.40
2023-03-21T13:57:46.438Z,20.42
2023-03-21T14:00:31.758Z,13.93
2023-03-21T14:03:17.618Z,17.77
2023-03-21T14:05:51.807Z,17.67
2023-03-21T14:08:31.237Z,18.02
2023-03-21T14:11:12.201Z,17.63
2023-03-21T14:13:51.179Z,17.85
2023-03-21T14:16:28.846Z,19.05
2023-03-21T14:19:06.643Z,17.25
2023-03-21T14:21:36.851Z,18.60
2023-03-21T14:24:14.268Z,17.35
2023-03-21T14:26:50.873Z,17.02
2023-03-21T14:29:32.934Z,18.13
2023-03-21T14:32:06.030Z,15.95
2023-03-21T14:34:37.653Z,17.25
2023-03-21T14:37:11.896Z,13.93
2023-03-21T14:39:41.603Z,16.17
2023-03-21T14:42:15.997Z,15.63
2023-03-21T14:44:55.316Z,14.05
2023-03-21T14:47:30.063Z,16.23
2023-03-21T14:50:03.305Z,16.23
2023-03-21T14:52:34.756Z,15.48
2023-03-21T14:55:17.007Z,15.00
2023-03-21T14:57:45.568Z,16.02
2023-03-21T15:00:27.869Z,18.58
2023-03-21T15:03:00.793Z,15.00
2023-03-21T15:05:39.656Z,15.10
2023-03-21T15:08:26.341Z,18.13
2023-03-21T15:11:08.768Z,15.77
2023-03-21T15:13:55.172Z,15.55
2023-03-21T15:16:23.842Z,19.40
2023-03-21T15:18:54.712Z,17.92
2023-03-21T15:21:48.520Z,15.35
2023-03-21T15:24:34.112Z,16.52
2023-03-21T15:27:14.165Z,15.23
2023-03-21T15:29:46.465Z,17.30
2023-03-21T15:32:24.644Z,17.73
2023-03-21T15:35:06.525Z,24.13
2023-03-21T15:37:38.349Z,17.67
2023-03-21T15:40:29.274Z,19.65
2023-03-21T15:43:19.394Z,20.50
2023-03-21T15:45:57.746Z,23.45
2023-03-21T15:48:35.276Z,20.10
2023-03-21T15:51:25.982Z,20.77
2023-03-21T15:53:56.573Z,20.95
2023-03-21T15:56:34.215Z,22.70
2023-03-21T15:59:05.785Z,23.83
2023-03-21T16:01:39.238Z,23.63
2023-03-21T16:04:14.801Z,23.25
2023-03-21T16:07:17.179Z,24.58
2023-03-21T16:09:47.573Z,22.75
2023-03-21T16:12:18.923Z,23.85
2023-03-21T16:14:49.302Z,26.60
2023-03-21T16:17:39.795Z,25.60
2023-03-21T16:20:26.909Z,31.75
2023-03-21T16:22:57.131Z,25.85
2023-03-21T16:25:30.981Z,27.88
2023-03-21T16:28:01.095Z,25.67
2023-03-21T16:30:31.477Z,28.10
2023-03-21T16:33:01.482Z,26.85
2023-03-21T16:35:35.251Z,26.15
2023-03-21T16:38:05.591Z,29.05
2023-03-21T16:40:43.487Z,25.60
2023-03-21T16:43:14.241Z,26.40
2023-03-21T16:45:44.427Z,26.85
2023-03-21T16:48:17.620Z,27.92
2023-03-21T16:50:48.918Z,31.08
2023-03-21T16:53:19.105Z,33.72
2023-03-21T16:55:50.475Z,31.42
2023-03-21T16:58:20.690Z,27.88
2023-03-21T17:00:50.980Z,30.48
2023-03-21T17:03:22.050Z,28.83
2023-03-21T17:05:52.171Z,30.92
2023-03-21T17:08:22.536Z,34.53
2023-03-21T17:10:53.199Z,27.90
2023-03-21T17:13:23.256Z,29.98
2023-03-21T17:15:53.360Z,32.95
2023-03-21T17:18:23.489Z,28.08
2023-03-21T17:20:53.534Z,31.17
2023-03-21T17:23:23.826Z,29.67
2023-03-21T17:25:53.839Z,32.85
2023-03-21T17:28:23.865Z,32.40
2023-03-21T17:30:54.003Z,32.03
2023-03-21T17:33:24.275Z,31.27
2023-03-21T17:35:54.496Z,29.67
2023-03-21T17:38:23.064Z,32.03
2023-03-21T17:40:51.276Z,31.92
2023-03-21T17:43:21.688Z,27.50
2023-03-21T17:45:51.291Z,32.42
2023-03-21T17:48:19.553Z,29.67
2023-03-21T17:50:48.486Z,34.33
2023-03-21T17:53:16.411Z,33.30
2023-03-21T17:55:44.696Z,31.90
2023-03-21T17:58:13.840Z,32.00
2023-03-21T18:00:41.665Z,31.55
2023-03-21T18:03:10.169Z,33.00
2023-03-21T18:05:38.508Z,29.05
2023-03-21T18:08:11.238Z,33.40
2023-03-21T18:10:43.109Z,33.15
2023-03-21T18:13:13.603Z,32.72
2023-03-21T18:15:44.676Z,30.80
2023-03-21T18:18:15.352Z,33.30
2023-03-21T18:20:52.172Z,31.75
2023-03-21T18:23:23.178Z,34.22
2023-03-21T18:25:52.669Z,34.20
2023-03-21T18:28:23.258Z,34.55
2023-03-21T18:31:08.570Z,31.65
2023-03-21T18:33:42.224Z,33.67
2023-03-21T18:36:24.525Z,32.60
2023-03-21T18:38:56.833Z,36.13
2023-03-21T18:41:27.174Z,30.40
2023-03-21T18:44:02.671Z,28.98
2023-03-21T18:46:37.407Z,30.77
2023-03-21T18:49:52.108Z,31.90
2023-03-21T18:51:58.271Z,30.73
2023-03-21T18:54:28.826Z,32.25
2023-03-21T18:57:34.974Z,29.58
2023-03-21T18:59:47.057Z,31.75
2023-03-21T19:02:17.013Z,26.60
2023-03-21T19:04:47.374Z,29.60
2023-03-21T19:07:18.418Z,30.48
2023-03-21T19:10:10.566Z,25.10
2023-03-21T19:12:37.950Z,31.92
2023-03-21T19:15:08.605Z,25.23
2023-03-21T19:18:23.182Z,27.52
2023-03-21T19:20:28.647Z,27.45
2023-03-21T19:22:58.293Z,26.55
2023-03-21T19:25:28.206Z,26.48
2023-03-21T19:27:57.837Z,24.35
2023-03-21T19:30:27.986Z,25.40
2023-03-21T19:32:58.064Z,26.65
2023-03-21T19:35:28.808Z,26.17
2023-03-21T19:37:59.100Z,26.23
2023-03-21T19:40:29.406Z,23.23
2023-03-21T19:43:10.373Z,26.48
2023-03-21T19:45:49.340Z,21.48
2023-03-21T19:48:20.928Z,25.20
2023-03-21T19:51:20.554Z,23.40
2023-03-21T19:53:41.298Z,23.42
2023-03-21T19:56:21.506Z,24.23
2023-03-21T19:58:52.880Z,24.38
2023-03-21T20:01:24.226Z,23.75
2023-03-21T20:03:54.941Z,23.15
2023-03-21T20:06:25.411Z,27.27
2023-03-21T20:09:41.453Z,26.50
2023-03-21T20:11:45.868Z,26.58
2023-03-21T20:14:14.324Z,27.08
2023-03-21T20:16:43.770Z,27.92
2023-03-21T20:19:16.349Z,29.52
2023-03-21T20:21:55.424Z,27.63
2023-03-21T20:24:28.369Z,28.10
2023-03-21T20:26:58.198Z,26.58
2023-03-21T20:30:07.643Z,32.83
2023-03-21T20:32:16.342Z,29.33
2023-03-21T20:34:46.779Z,30.13
2023-03-21T20:37:16.604Z,30.92
2023-03-21T20:39:46.787Z,32.55
2023-03-21T20:42:16.745Z,28.98
2023-03-21T20:44:58.765Z,34.38
2023-03-21T20:47:29.153Z,31.38
2023-03-21T20:49:59.806Z,28.67
2023-03-21T20:52:57.488Z,31.98
2023-03-21T20:55:22.780Z,33.40
2023-03-21T20:57:54.855Z,30.75
2023-03-21T21:00:26.550Z,27.98
2023-03-21T21:02:56.680Z,34.95
2023-03-21T21:05:31.437Z,32.88
2023-03-21T21:08:03.658Z,29.75
2023-03-21T21:10:35.025Z,32.50
2023-03-21T21:13:07.880Z,34.45
2023-03-21T21:15:37.998Z,35.53
2023-03-21T21:18:08.563Z,33.25
2023-03-21T21:20:39.030Z,36.35
2023-03-21T21:23:09.810Z,33.13
2023-03-21T21:25:39.963Z,35.13
2023-03-21T21:28:11.845Z,37.60
2023-03-21T21:30:42.908Z,36.70
2023-03-21T21:33:14.630Z,35.17
2023-03-21T21:35:50.785Z,32.80
2023-03-21T21:38:21.219Z,34.13
2023-03-21T21:40:52.384Z,29.85
2023-03-21T21:43:23.078Z,30.38
2023-03-21T21:45:54.071Z,37.42
2023-03-21T21:48:24.019Z,39.22
2023-03-21T21:50:54.686Z,36.58
2023-03-21T21:53:28.234Z,37.42
2023-03-21T21:55:57.273Z,38.70
2023-03-21T21:58:26.060Z,31.85
2023-03-21T22:01:01.966Z,36.28
2023-03-21T22:03:36.795Z,39.15
2023-03-21T22:06:10.219Z,35.30
2023-03-21T22:08:47.077Z,37.38
2023-03-21T22:11:21.669Z,35.38
2023-03-21T22:13:51.762Z,37.42
2023-03-21T22:16:20.143Z,41.83
2023-03-21T22:18:48.589Z,40.47
2023-03-21T22:21:17.036Z,44.47
2023-03-21T22:23:48.067Z,39.40
2023-03-21T22:26:18.247Z,37.33
2023-03-21T22:28:48.421Z,38.10
2023-03-21T22:31:18.393Z,33.47
2023-03-21T22:33:49.291Z,37.47
2023-03-21T22:36:20.201Z,32.83
2023-03-21T22:38:50.309Z,40.10
2023-03-21T22:41:20.003Z,35.72
2023-03-21T22:43:49.943Z,40.22
2023-03-21T22:46:22.393Z,37.15
2023-03-21T22:48:53.929Z,41.97
2023-03-21T22:51:23.981Z,36.45
2023-03-21T22:53:54.382Z,38.28
2023-03-21T22:56:24.085Z,33.67
2023-03-21T22:58:54.284Z,41.42
2023-03-21T23:01:24.354Z,33.78
2023-03-21T23:03:54.120Z,39.03
2023-03-21T23:06:23.945Z,35.55
2023-03-21T23:08:53.744Z,36.08
2023-03-21T23:11:23.646Z,35.97
2023-03-21T23:14:07.204Z,33.60
2023-03-21T23:16:38.533Z,41.70
2023-03-21T23:19:10.443Z,35.58
2023-03-21T23:21:40.520Z,35.50
2023-03-21T23:24:11.854Z,40.35
2023-03-21T23:26:43.036Z,40.28
2023-03-21T23:29:12.391Z,37.00
2023-03-21T23:31:42.274Z,32.80
2023-03-21T23:34:13.273Z,39.30
2023-03-21T23:36:43.495Z,31.70
2023-03-21T23:39:16.718Z,29.65
2023-03-21T23:41:46.506Z,32.75
2023-03-21T23:44:15.467Z,28.38
2023-03-21T23:46:46.160Z,34.10
2023-03-21T23:49:15.379Z,33.90
2023-03-21T23:51:43.037Z,29.65
2023-03-21T23:54:11.444Z,31.90
2023-03-21T23:56:39.861Z,31.58
2023-03-21T23:59:08.742Z,31.48
